sensor_id;sensor_type;location;lat;lon;timestamp;P1;P2;P0
49343;PMS5003;35210;41.606;-87.602;2023-09-30T00:01:33;14.80;14.40;11.20
49343;PMS5003;35210;41.606;-87.602;2023-09-30T00:04:01;15.80;15.00;10.60
49343;PMS5003;35210;41.606;-87.602;2023-09-30T00:06:30;14.00;14.00;10.20
49343;PMS5003;35210;41.606;-87.602;2023-09-30T00:08:59;16.00;12.00;10.00
49343;PMS5003;35210;41.606;-87.602;2023-09-30T00:11:27;13.40;13.20;10.00
49343;PMS5003;35210;41.606;-87.602;2023-09-30T00:13:55;14.20;14.20;11.40
49343;PMS5003;35210;41.606;-87.602;2023-09-30T00:16:24;14.20;13.20;10.40
49343;PMS5003;35210;41.606;-87.602;2023-09-30T00:18:53;15.20;15.20;10.40
49343;PMS5003;35210;41.606;-87.602;2023-09-30T00:21:21;12.80;11.60;9.00
49343;PMS5003;35210;41.606;-87.602;2023-09-30T00:23:49;12.20;12.00;9.00
49343;PMS5003;35210;41.606;-87.602;2023-09-30T00:26:22;14.60;11.20;7.60
49343;PMS5003;35210;41.606;-87.602;2023-09-30T00:28:50;13.40;13.00;9.40
49343;PMS5003;35210;41.606;-87.602;2023-09-30T00:31:18;10.60;10.60;7.20
49343;PMS5003;35210;41.606;-87.602;2023-09-30T00:33:48;13.40;11.80;8.80
49343;PMS5003;35210;41.606;-87.602;2023-09-30T00:36:16;9.20;9.20;6.20
49343;PMS5003;35210;41.606;-87.602;2023-09-30T00:38:44;11.80;10.00;8.00
49343;PMS5003;35210;41.606;-87.602;2023-09-30T00:41:12;12.00;12.00;7.40
49343;PMS5003;35210;41.606;-87.602;2023-09-30T00:43:41;12.40;11.80;8.00
49343;PMS5003;35210;41.606;-87.602;2023-09-30T00:46:11;10.40;10.40;7.20
49343;PMS5003;35210;41.606;-87.602;2023-09-30T00:48:50;12.80;10.40;7.60
49343;PMS5003;35210;41.606;-87.602;2023-09-30T00:51:19;12.40;12.00;7.00
49343;PMS5003;35210;41.606;-87.602;2023-09-30T00:53:48;11.80;11.80;8.00
49343;PMS5003;35210;41.606;-87.602;2023-09-30T00:56:17;13.40;13.20;9.20
49343;PMS5003;35210;41.606;-87.602;2023-09-30T00:58:46;9.80;9.80;8.00
49343;PMS5003;35210;41.606;-87.602;2023-09-30T01:01:16;9.40;9.20;7.40
49343;PMS5003;35210;41.606;-87.602;2023-09-30T01:03:45;14.60;12.80;8.60
49343;PMS5003;35210;41.606;-87.602;2023-09-30T01:06:15;12.40;12.00;8.80
49343;PMS5003;35210;41.606;-87.602;2023-09-30T01:08:44;11.60;11.60;9.00
49343;PMS5003;35210;41.606;-87.602;2023-09-30T01:11:12;12.80;10.20;8.00
49343;PMS5003;35210;41.606;-87.602;2023-09-30T01:13:41;16.00;11.00;7.00
49343;PMS5003;35210;41.606;-87.602;2023-09-30T01:16:10;11.20;10.20;7.20
49343;PMS5003;35210;41.606;-87.602;2023-09-30T01:18:38;12.60;10.80;8.00
49343;PMS5003;35210;41.606;-87.602;2023-09-30T01:21:08;11.40;10.00;8.60
49343;PMS5003;35210;41.606;-87.602;2023-09-30T01:23:39;13.60;13.00;9.00
49343;PMS5003;35210;41.606;-87.602;2023-09-30T01:26:09;17.40;15.40;10.80
49343;PMS5003;35210;41.606;-87.602;2023-09-30T01:28:39;15.60;15.60;10.80
49343;PMS5003;35210;41.606;-87.602;2023-09-30T01:31:08;13.40;13.20;9.00
49343;PMS5003;35210;41.606;-87.602;2023-09-30T01:33:36;17.80;17.20;11.40
49343;PMS5003;35210;41.606;-87.602;2023-09-30T01:36:04;16.60;15.80;12.00
49343;PMS5003;35210;41.606;-87.602;2023-09-30T01:38:33;18.20;16.20;11.60
49343;PMS5003;35210;41.606;-87.602;2023-09-30T01:41:03;13.80;11.80;9.00
49343;PMS5003;35210;41.606;-87.602;2023-09-30T01:43:31;23.40;19.60;11.80
49343;PMS5003;35210;41.606;-87.602;2023-09-30T01:46:01;18.00;15.80;11.60
49343;PMS5003;35210;41.606;-87.602;2023-09-30T01:48:30;17.60;16.00;11.00
49343;PMS5003;35210;41.606;-87.602;2023-09-30T01:50:57;21.20;18.20;14.00
49343;PMS5003;35210;41.606;-87.602;2023-09-30T01:53:25;16.80;15.80;10.00
49343;PMS5003;35210;41.606;-87.602;2023-09-30T01:55:53;15.60;15.60;10.40
49343;PMS5003;35210;41.606;-87.602;2023-09-30T01:58:24;10.80;9.40;6.60
49343;PMS5003;35210;41.606;-87.602;2023-09-30T02:00:52;15.80;14.60;10.60
49343;PMS5003;35210;41.606;-87.602;2023-09-30T02:03:21;18.60;16.80;12.00
49343;PMS5003;35210;41.606;-87.602;2023-09-30T02:05:49;12.00;12.00;10.00
49343;PMS5003;35210;41.606;-87.602;2023-09-30T02:08:17;23.00;18.80;13.20
49343;PMS5003;35210;41.606;-87.602;2023-09-30T02:10:45;18.80;15.60;10.60
49343;PMS5003;35210;41.606;-87.602;2023-09-30T02:13:13;16.60;14.80;10.60
49343;PMS5003;35210;41.606;-87.602;2023-09-30T02:15:43;17.80;15.40;11.40
49343;PMS5003;35210;41.606;-87.602;2023-09-30T02:18:11;16.60;14.60;10.60
49343;PMS5003;35210;41.606;-87.602;2023-09-30T02:20:40;18.00;16.40;12.20
49343;PMS5003;35210;41.606;-87.602;2023-09-30T02:23:09;16.00;14.00;9.40
49343;PMS5003;35210;41.606;-87.602;2023-09-30T02:25:37;14.60;13.80;10.20
49343;PMS5003;35210;41.606;-87.602;2023-09-30T02:28:05;22.00;18.60;12.80
49343;PMS5003;35210;41.606;-87.602;2023-09-30T02:30:35;14.60;14.60;10.00
49343;PMS5003;35210;41.606;-87.602;2023-09-30T02:33:04;18.40;15.20;11.80
49343;PMS5003;35210;41.606;-87.602;2023-09-30T02:35:33;19.80;16.20;11.40
49343;PMS5003;35210;41.606;-87.602;2023-09-30T02:38:04;18.60;15.00;11.60
49343;PMS5003;35210;41.606;-87.602;2023-09-30T02:40:32;19.20;16.80;12.20
49343;PMS5003;35210;41.606;-87.602;2023-09-30T02:43:00;22.40;18.60;12.60
49343;PMS5003;35210;41.606;-87.602;2023-09-30T02:45:28;13.40;12.00;8.00
49343;PMS5003;35210;41.606;-87.602;2023-09-30T02:47:56;18.60;18.00;12.20
49343;PMS5003;35210;41.606;-87.602;2023-09-30T02:50:26;18.60;15.60;10.60
49343;PMS5003;35210;41.606;-87.602;2023-09-30T02:52:54;16.40;14.00;11.00
49343;PMS5003;35210;41.606;-87.602;2023-09-30T02:55:22;15.00;13.20;10.40
49343;PMS5003;35210;41.606;-87.602;2023-09-30T02:57:50;13.80;12.20;9.00
49343;PMS5003;35210;41.606;-87.602;2023-09-30T03:00:19;14.40;13.00;9.00
49343;PMS5003;35210;41.606;-87.602;2023-09-30T03:02:51;16.20;15.60;11.00
49343;PMS5003;35210;41.606;-87.602;2023-09-30T03:05:20;16.20;14.80;9.20
49343;PMS5003;35210;41.606;-87.602;2023-09-30T03:07:51;15.60;13.40;11.00
49343;PMS5003;35210;41.606;-87.602;2023-09-30T03:10:20;18.80;15.00;11.80
49343;PMS5003;35210;41.606;-87.602;2023-09-30T03:12:49;11.60;9.80;7.40
49343;PMS5003;35210;41.606;-87.602;2023-09-30T03:15:17;13.20;12.00;9.60
49343;PMS5003;35210;41.606;-87.602;2023-09-30T03:17:45;14.20;13.80;8.80
49343;PMS5003;35210;41.606;-87.602;2023-09-30T03:20:14;14.20;14.00;11.00
49343;PMS5003;35210;41.606;-87.602;2023-09-30T03:22:44;18.80;16.60;11.00
49343;PMS5003;35210;41.606;-87.602;2023-09-30T03:25:15;14.80;13.80;9.60
49343;PMS5003;35210;41.606;-87.602;2023-09-30T03:27:44;13.60;11.40;8.80
49343;PMS5003;35210;41.606;-87.602;2023-09-30T03:30:13;14.00;14.00;10.20
49343;PMS5003;35210;41.606;-87.602;2023-09-30T03:32:42;14.80;14.00;9.20
49343;PMS5003;35210;41.606;-87.602;2023-09-30T03:35:10;10.40;10.40;8.80
49343;PMS5003;35210;41.606;-87.602;2023-09-30T03:37:42;15.00;13.60;9.00
49343;PMS5003;35210;41.606;-87.602;2023-09-30T03:40:11;13.60;12.60;8.40
49343;PMS5003;35210;41.606;-87.602;2023-09-30T03:42:41;17.60;14.00;9.80
49343;PMS5003;35210;41.606;-87.602;2023-09-30T03:45:09;13.00;12.00;9.00
49343;PMS5003;35210;41.606;-87.602;2023-09-30T03:47:40;18.40;16.20;11.60
49343;PMS5003;35210;41.606;-87.602;2023-09-30T03:50:09;11.60;11.60;9.20
49343;PMS5003;35210;41.606;-87.602;2023-09-30T03:52:40;17.80;17.40;11.80
49343;PMS5003;35210;41.606;-87.602;2023-09-30T03:55:10;14.80;12.60;9.20
49343;PMS5003;35210;41.606;-87.602;2023-09-30T03:57:41;9.20;7.40;2.20
49343;PMS5003;35210;41.606;-87.602;2023-09-30T04:00:11;16.40;13.40;10.00
49343;PMS5003;35210;41.606;-87.602;2023-09-30T04:02:44;16.60;13.00;9.00
49343;PMS5003;35210;41.606;-87.602;2023-09-30T04:05:15;14.00;12.40;8.80
49343;PMS5003;35210;41.606;-87.602;2023-09-30T04:07:44;12.80;11.80;8.80
49343;PMS5003;35210;41.606;-87.602;2023-09-30T04:10:12;13.00;13.00;10.00
49343;PMS5003;35210;41.606;-87.602;2023-09-30T04:12:42;21.60;19.40;13.80
49343;PMS5003;35210;41.606;-87.602;2023-09-30T04:15:10;18.80;16.20;12.40
49343;PMS5003;35210;41.606;-87.602;2023-09-30T04:17:38;18.40;18.20;12.20
49343;PMS5003;35210;41.606;-87.602;2023-09-30T04:20:07;23.40;18.00;11.40
49343;PMS5003;35210;41.606;-87.602;2023-09-30T04:22:41;18.20;15.20;8.40
49343;PMS5003;35210;41.606;-87.602;2023-09-30T04:25:14;14.40;14.40;10.20
49343;PMS5003;35210;41.606;-87.602;2023-09-30T04:27:43;14.80;13.40;9.40
49343;PMS5003;35210;41.606;-87.602;2023-09-30T04:30:13;12.60;12.60;9.00
49343;PMS5003;35210;41.606;-87.602;2023-09-30T04:32:41;15.80;15.80;10.20
49343;PMS5003;35210;41.606;-87.602;2023-09-30T04:35:10;13.00;10.40;7.80
49343;PMS5003;35210;41.606;-87.602;2023-09-30T04:37:38;16.20;13.80;9.80
49343;PMS5003;35210;41.606;-87.602;2023-09-30T04:40:07;16.80;14.40;9.60
49343;PMS5003;35210;41.606;-87.602;2023-09-30T04:42:41;16.00;13.60;9.00
49343;PMS5003;35210;41.606;-87.602;2023-09-30T04:45:11;14.20;10.20;8.40
49343;PMS5003;35210;41.606;-87.602;2023-09-30T04:47:42;16.60;15.20;10.20
49343;PMS5003;35210;41.606;-87.602;2023-09-30T04:50:11;19.00;16.80;10.80
49343;PMS5003;35210;41.606;-87.602;2023-09-30T04:52:41;18.80;16.00;11.40
49343;PMS5003;35210;41.606;-87.602;2023-09-30T04:55:10;18.80;14.00;9.00
49343;PMS5003;35210;41.606;-87.602;2023-09-30T04:57:41;15.40;12.80;9.20
49343;PMS5003;35210;41.606;-87.602;2023-09-30T05:00:13;16.60;15.00;10.00
49343;PMS5003;35210;41.606;-87.602;2023-09-30T05:02:43;15.80;14.00;10.00
49343;PMS5003;35210;41.606;-87.602;2023-09-30T05:05:11;13.20;12.60;9.60
49343;PMS5003;35210;41.606;-87.602;2023-09-30T05:07:40;13.40;13.20;9.00
49343;PMS5003;35210;41.606;-87.602;2023-09-30T05:10:08;16.40;14.40;10.40
49343;PMS5003;35210;41.606;-87.602;2023-09-30T05:12:41;17.00;14.80;9.60
49343;PMS5003;35210;41.606;-87.602;2023-09-30T05:15:12;15.40;14.60;10.00
49343;PMS5003;35210;41.606;-87.602;2023-09-30T05:17:42;16.00;14.00;10.20
49343;PMS5003;35210;41.606;-87.602;2023-09-30T05:20:10;17.00;14.60;10.00
49343;PMS5003;35210;41.606;-87.602;2023-09-30T05:22:39;14.80;14.40;9.00
49343;PMS5003;35210;41.606;-87.602;2023-09-30T05:25:10;18.00;15.80;9.80
49343;PMS5003;35210;41.606;-87.602;2023-09-30T05:27:38;15.20;14.40;10.20
49343;PMS5003;35210;41.606;-87.602;2023-09-30T05:30:08;21.60;18.60;12.00
49343;PMS5003;35210;41.606;-87.602;2023-09-30T05:32:38;18.00;16.60;11.00
49343;PMS5003;35210;41.606;-87.602;2023-09-30T05:35:07;19.20;15.00;10.20
49343;PMS5003;35210;41.606;-87.602;2023-09-30T05:37:38;20.00;17.80;11.60
49343;PMS5003;35210;41.606;-87.602;2023-09-30T05:40:07;15.80;14.80;9.40
49343;PMS5003;35210;41.606;-87.602;2023-09-30T05:42:45;16.20;15.20;9.00
49343;PMS5003;35210;41.606;-87.602;2023-09-30T05:45:14;19.00;15.00;10.80
49343;PMS5003;35210;41.606;-87.602;2023-09-30T05:47:44;19.60;16.60;12.00
49343;PMS5003;35210;41.606;-87.602;2023-09-30T05:50:13;19.40;16.80;12.00
49343;PMS5003;35210;41.606;-87.602;2023-09-30T05:52:42;17.20;16.00;10.60
49343;PMS5003;35210;41.606;-87.602;2023-09-30T05:55:11;21.00;18.60;11.40
49343;PMS5003;35210;41.606;-87.602;2023-09-30T05:57:39;14.40;14.40;9.80
49343;PMS5003;35210;41.606;-87.602;2023-09-30T06:00:10;22.00;17.20;11.00
49343;PMS5003;35210;41.606;-87.602;2023-09-30T06:02:47;15.80;13.80;9.80
49343;PMS5003;35210;41.606;-87.602;2023-09-30T06:05:17;17.40;16.00;11.00
49343;PMS5003;35210;41.606;-87.602;2023-09-30T06:07:47;17.80;17.00;11.20
49343;PMS5003;35210;41.606;-87.602;2023-09-30T06:10:16;18.00;15.60;10.60
49343;PMS5003;35210;41.606;-87.602;2023-09-30T06:12:45;20.60;16.00;10.60
49343;PMS5003;35210;41.606;-87.602;2023-09-30T06:15:13;18.80;17.20;11.60
49343;PMS5003;35210;41.606;-87.602;2023-09-30T06:17:49;19.80;16.40;11.80
49343;PMS5003;35210;41.606;-87.602;2023-09-30T06:20:17;22.20;16.60;10.00
49343;PMS5003;35210;41.606;-87.602;2023-09-30T06:22:47;18.40;16.00;10.00
49343;PMS5003;35210;41.606;-87.602;2023-09-30T06:25:16;17.40;16.60;11.00
49343;PMS5003;35210;41.606;-87.602;2023-09-30T06:27:45;15.00;12.20;7.40
49343;PMS5003;35210;41.606;-87.602;2023-09-30T06:30:15;18.60;16.40;11.40
49343;PMS5003;35210;41.606;-87.602;2023-09-30T06:32:45;18.00;16.00;10.40
49343;PMS5003;35210;41.606;-87.602;2023-09-30T06:35:14;14.60;13.80;9.20
49343;PMS5003;35210;41.606;-87.602;2023-09-30T06:37:42;15.20;15.20;11.00
49343;PMS5003;35210;41.606;-87.602;2023-09-30T06:40:11;17.80;16.40;11.40
49343;PMS5003;35210;41.606;-87.602;2023-09-30T06:42:39;15.20;14.80;9.60
49343;PMS5003;35210;41.606;-87.602;2023-09-30T06:45:08;22.60;16.00;11.20
49343;PMS5003;35210;41.606;-87.602;2023-09-30T06:47:39;16.20;15.40;9.80
49343;PMS5003;35210;41.606;-87.602;2023-09-30T06:50:08;18.00;16.60;11.00
49343;PMS5003;35210;41.606;-87.602;2023-09-30T06:52:40;21.00;17.80;12.20
49343;PMS5003;35210;41.606;-87.602;2023-09-30T06:55:10;18.20;17.00;11.80
49343;PMS5003;35210;41.606;-87.602;2023-09-30T06:57:42;15.20;14.40;10.00
49343;PMS5003;35210;41.606;-87.602;2023-09-30T07:00:10;20.80;19.40;11.00
49343;PMS5003;35210;41.606;-87.602;2023-09-30T07:02:40;16.20;15.60;10.40
49343;PMS5003;35210;41.606;-87.602;2023-09-30T07:05:10;17.20;16.20;10.40
49343;PMS5003;35210;41.606;-87.602;2023-09-30T07:07:40;17.60;15.60;11.20
49343;PMS5003;35210;41.606;-87.602;2023-09-30T07:10:10;16.20;15.80;11.20
49343;PMS5003;35210;41.606;-87.602;2023-09-30T07:12:38;16.00;15.40;10.20
49343;PMS5003;35210;41.606;-87.602;2023-09-30T07:15:07;16.60;16.20;9.40
49343;PMS5003;35210;41.606;-87.602;2023-09-30T07:17:35;18.40;17.60;13.00
49343;PMS5003;35210;41.606;-87.602;2023-09-30T07:20:05;13.00;13.00;8.20
49343;PMS5003;35210;41.606;-87.602;2023-09-30T07:22:35;19.40;17.20;11.40
49343;PMS5003;35210;41.606;-87.602;2023-09-30T07:25:05;20.00;16.80;10.60
49343;PMS5003;35210;41.606;-87.602;2023-09-30T07:27:34;19.20;18.40;12.40
49343;PMS5003;35210;41.606;-87.602;2023-09-30T07:30:02;14.60;13.60;10.40
49343;PMS5003;35210;41.606;-87.602;2023-09-30T07:32:32;16.20;15.00;10.20
49343;PMS5003;35210;41.606;-87.602;2023-09-30T07:35:01;18.80;18.20;11.80
49343;PMS5003;35210;41.606;-87.602;2023-09-30T07:37:29;16.20;13.80;9.00
49343;PMS5003;35210;41.606;-87.602;2023-09-30T07:39:57;16.40;14.60;9.60
49343;PMS5003;35210;41.606;-87.602;2023-09-30T07:42:27;19.80;17.00;11.80
49343;PMS5003;35210;41.606;-87.602;2023-09-30T07:44:55;16.00;15.00;11.20
49343;PMS5003;35210;41.606;-87.602;2023-09-30T07:47:23;16.80;15.00;8.00
49343;PMS5003;35210;41.606;-87.602;2023-09-30T07:49:51;15.80;14.80;10.60
49343;PMS5003;35210;41.606;-87.602;2023-09-30T07:52:19;15.20;14.20;9.00
49343;PMS5003;35210;41.606;-87.602;2023-09-30T07:54:47;19.00;19.00;12.20
49343;PMS5003;35210;41.606;-87.602;2023-09-30T07:57:16;15.60;15.60;11.00
49343;PMS5003;35210;41.606;-87.602;2023-09-30T07:59:45;14.20;14.20;10.20
49343;PMS5003;35210;41.606;-87.602;2023-09-30T08:02:14;20.20;17.60;11.60
49343;PMS5003;35210;41.606;-87.602;2023-09-30T08:04:43;14.80;13.20;9.00
49343;PMS5003;35210;41.606;-87.602;2023-09-30T08:07:11;16.60;15.20;11.20
49343;PMS5003;35210;41.606;-87.602;2023-09-30T08:09:39;20.40;17.20;12.00
49343;PMS5003;35210;41.606;-87.602;2023-09-30T08:12:08;21.00;16.20;11.00
49343;PMS5003;35210;41.606;-87.602;2023-09-30T08:14:36;16.60;15.00;10.20
49343;PMS5003;35210;41.606;-87.602;2023-09-30T08:17:05;14.20;14.20;9.00
49343;PMS5003;35210;41.606;-87.602;2023-09-30T08:19:34;15.40;14.40;9.80
49343;PMS5003;35210;41.606;-87.602;2023-09-30T08:22:02;14.80;14.40;9.60
49343;PMS5003;35210;41.606;-87.602;2023-09-30T08:24:30;13.60;13.60;9.20
49343;PMS5003;35210;41.606;-87.602;2023-09-30T08:26:58;17.00;16.00;9.80
49343;PMS5003;35210;41.606;-87.602;2023-09-30T08:29:26;16.60;16.20;10.60
49343;PMS5003;35210;41.606;-87.602;2023-09-30T08:31:54;14.20;12.80;9.40
49343;PMS5003;35210;41.606;-87.602;2023-09-30T08:34:25;15.00;15.00;10.20
49343;PMS5003;35210;41.606;-87.602;2023-09-30T08:36:53;15.00;15.00;9.60
49343;PMS5003;35210;41.606;-87.602;2023-09-30T08:39:21;15.20;15.20;11.60
49343;PMS5003;35210;41.606;-87.602;2023-09-30T08:41:50;16.60;13.00;9.00
49343;PMS5003;35210;41.606;-87.602;2023-09-30T08:44:18;19.80;17.80;12.40
49343;PMS5003;35210;41.606;-87.602;2023-09-30T08:46:46;13.60;12.80;8.40
49343;PMS5003;35210;41.606;-87.602;2023-09-30T08:49:16;19.80;15.20;9.80
49343;PMS5003;35210;41.606;-87.602;2023-09-30T08:51:48;16.20;15.00;11.00
49343;PMS5003;35210;41.606;-87.602;2023-09-30T08:54:16;16.80;14.40;10.00
49343;PMS5003;35210;41.606;-87.602;2023-09-30T08:56:47;14.60;14.00;9.60
49343;PMS5003;35210;41.606;-87.602;2023-09-30T08:59:16;14.20;14.00;9.60
49343;PMS5003;35210;41.606;-87.602;2023-09-30T09:01:45;13.20;11.60;7.80
49343;PMS5003;35210;41.606;-87.602;2023-09-30T09:04:13;17.20;16.80;10.20
49343;PMS5003;35210;41.606;-87.602;2023-09-30T09:06:42;21.00;15.20;10.60
49343;PMS5003;35210;41.606;-87.602;2023-09-30T09:09:16;21.00;17.80;10.20
49343;PMS5003;35210;41.606;-87.602;2023-09-30T09:11:47;19.60;17.00;10.80
49343;PMS5003;35210;41.606;-87.602;2023-09-30T09:14:16;20.00;17.40;13.00
49343;PMS5003;35210;41.606;-87.602;2023-09-30T09:16:50;13.80;12.80;7.00
49343;PMS5003;35210;41.606;-87.602;2023-09-30T09:19:20;15.80;13.80;11.00
49343;PMS5003;35210;41.606;-87.602;2023-09-30T09:21:55;15.60;15.20;10.40
49343;PMS5003;35210;41.606;-87.602;2023-09-30T09:24:29;17.80;15.00;10.00
49343;PMS5003;35210;41.606;-87.602;2023-09-30T09:27:07;17.40;14.40;10.00
49343;PMS5003;35210;41.606;-87.602;2023-09-30T09:29:36;21.40;16.40;11.40
49343;PMS5003;35210;41.606;-87.602;2023-09-30T09:32:08;18.80;17.00;10.20
49343;PMS5003;35210;41.606;-87.602;2023-09-30T09:34:38;17.20;15.00;10.20
49343;PMS5003;35210;41.606;-87.602;2023-09-30T09:37:13;14.60;14.20;10.00
49343;PMS5003;35210;41.606;-87.602;2023-09-30T09:39:53;13.40;13.40;10.00
49343;PMS5003;35210;41.606;-87.602;2023-09-30T09:42:26;17.20;15.40;10.20
49343;PMS5003;35210;41.606;-87.602;2023-09-30T09:44:56;15.20;13.20;8.40
49343;PMS5003;35210;41.606;-87.602;2023-09-30T09:47:25;16.00;14.80;9.60
49343;PMS5003;35210;41.606;-87.602;2023-09-30T09:49:54;18.60;17.40;13.00
49343;PMS5003;35210;41.606;-87.602;2023-09-30T09:52:26;21.20;16.40;11.20
49343;PMS5003;35210;41.606;-87.602;2023-09-30T09:54:57;16.60;14.60;10.20
49343;PMS5003;35210;41.606;-87.602;2023-09-30T09:57:25;17.60;15.40;9.60
49343;PMS5003;35210;41.606;-87.602;2023-09-30T09:59:57;18.20;16.20;11.00
49343;PMS5003;35210;41.606;-87.602;2023-09-30T10:02:30;17.40;16.20;11.20
49343;PMS5003;35210;41.606;-87.602;2023-09-30T10:05:00;15.20;14.60;10.00
49343;PMS5003;35210;41.606;-87.602;2023-09-30T10:07:35;15.20;12.80;7.40
49343;PMS5003;35210;41.606;-87.602;2023-09-30T10:10:10;18.20;14.80;10.20
49343;PMS5003;35210;41.606;-87.602;2023-09-30T10:12:42;21.80;20.60;12.00
49343;PMS5003;35210;41.606;-87.602;2023-09-30T10:18:05;16.80;13.40;10.00
49343;PMS5003;35210;41.606;-87.602;2023-09-30T10:20:38;19.40;17.40;11.20
49343;PMS5003;35210;41.606;-87.602;2023-09-30T10:23:23;16.40;14.20;9.20
49343;PMS5003;35210;41.606;-87.602;2023-09-30T10:25:55;23.40;19.20;12.60
49343;PMS5003;35210;41.606;-87.602;2023-09-30T10:28:43;18.60;18.20;12.00
49343;PMS5003;35210;41.606;-87.602;2023-09-30T10:31:15;18.40;16.20;11.20
49343;PMS5003;35210;41.606;-87.602;2023-09-30T10:36:49;21.80;18.00;12.20
49343;PMS5003;35210;41.606;-87.602;2023-09-30T10:51:01;18.80;17.40;11.00
49343;PMS5003;35210;41.606;-87.602;2023-09-30T10:53:47;19.20;19.20;13.80
49343;PMS5003;35210;41.606;-87.602;2023-09-30T10:56:18;19.00;16.60;10.40
49343;PMS5003;35210;41.606;-87.602;2023-09-30T10:58:49;19.40;19.40;12.40
49343;PMS5003;35210;41.606;-87.602;2023-09-30T11:01:18;18.40;14.80;9.80
49343;PMS5003;35210;41.606;-87.602;2023-09-30T11:03:48;23.40;21.40;13.40
49343;PMS5003;35210;41.606;-87.602;2023-09-30T11:06:18;22.40;20.60;13.00
49343;PMS5003;35210;41.606;-87.602;2023-09-30T11:08:50;17.60;16.40;10.40
49343;PMS5003;35210;41.606;-87.602;2023-09-30T11:11:31;16.20;15.20;7.20
49343;PMS5003;35210;41.606;-87.602;2023-09-30T11:14:03;22.20;18.80;13.40
49343;PMS5003;35210;41.606;-87.602;2023-09-30T11:16:40;22.60;21.60;13.20
49343;PMS5003;35210;41.606;-87.602;2023-09-30T11:19:09;22.00;19.80;13.20
49343;PMS5003;35210;41.606;-87.602;2023-09-30T11:21:37;16.20;16.20;10.80
49343;PMS5003;35210;41.606;-87.602;2023-09-30T11:24:06;21.20;20.80;13.00
49343;PMS5003;35210;41.606;-87.602;2023-09-30T11:26:35;18.80;17.00;10.60
49343;PMS5003;35210;41.606;-87.602;2023-09-30T11:29:08;20.80;18.00;12.60
49343;PMS5003;35210;41.606;-87.602;2023-09-30T11:31:39;20.20;18.20;12.80
49343;PMS5003;35210;41.606;-87.602;2023-09-30T11:34:08;23.80;19.60;12.20
49343;PMS5003;35210;41.606;-87.602;2023-09-30T11:36:37;25.00;19.20;11.20
49343;PMS5003;35210;41.606;-87.602;2023-09-30T11:39:08;25.20;24.20;15.40
49343;PMS5003;35210;41.606;-87.602;2023-09-30T11:41:39;15.40;14.20;11.00
49343;PMS5003;35210;41.606;-87.602;2023-09-30T11:44:11;18.60;16.80;11.80
49343;PMS5003;35210;41.606;-87.602;2023-09-30T11:46:47;22.60;18.80;11.40
49343;PMS5003;35210;41.606;-87.602;2023-09-30T11:49:24;21.20;19.40;13.00
49343;PMS5003;35210;41.606;-87.602;2023-09-30T11:51:54;16.80;15.60;9.00
49343;PMS5003;35210;41.606;-87.602;2023-09-30T11:54:28;19.60;17.40;12.40
49343;PMS5003;35210;41.606;-87.602;2023-09-30T11:57:00;23.00;18.20;13.00
49343;PMS5003;35210;41.606;-87.602;2023-09-30T11:59:30;18.80;18.80;14.00
49343;PMS5003;35210;41.606;-87.602;2023-09-30T12:01:58;24.40;19.20;13.40
49343;PMS5003;35210;41.606;-87.602;2023-09-30T12:04:27;21.40;21.00;14.40
49343;PMS5003;35210;41.606;-87.602;2023-09-30T12:06:55;23.20;21.40;13.60
49343;PMS5003;35210;41.606;-87.602;2023-09-30T12:09:24;25.40;22.80;14.00
49343;PMS5003;35210;41.606;-87.602;2023-09-30T12:11:53;22.20;21.40;13.20
49343;PMS5003;35210;41.606;-87.602;2023-09-30T12:14:23;19.40;19.40;13.60
49343;PMS5003;35210;41.606;-87.602;2023-09-30T12:16:53;24.60;21.40;13.60
49343;PMS5003;35210;41.606;-87.602;2023-09-30T12:19:21;23.40;19.40;13.20
49343;PMS5003;35210;41.606;-87.602;2023-09-30T12:21:51;23.20;21.80;13.80
49343;PMS5003;35210;41.606;-87.602;2023-09-30T12:24:20;21.80;20.40;13.00
49343;PMS5003;35210;41.606;-87.602;2023-09-30T12:26:49;21.60;20.80;14.60
49343;PMS5003;35210;41.606;-87.602;2023-09-30T12:29:19;21.40;18.40;12.80
49343;PMS5003;35210;41.606;-87.602;2023-09-30T12:31:53;20.40;18.00;11.60
49343;PMS5003;35210;41.606;-87.602;2023-09-30T12:34:21;23.80;20.80;14.00
49343;PMS5003;35210;41.606;-87.602;2023-09-30T12:36:53;26.60;22.80;14.00
49343;PMS5003;35210;41.606;-87.602;2023-09-30T12:39:21;27.00;24.20;15.80
49343;PMS5003;35210;41.606;-87.602;2023-09-30T12:41:55;25.00;22.40;14.40
49343;PMS5003;35210;41.606;-87.602;2023-09-30T12:44:23;27.80;26.80;17.00
49343;PMS5003;35210;41.606;-87.602;2023-09-30T12:46:55;26.60;26.20;15.60
49343;PMS5003;35210;41.606;-87.602;2023-09-30T12:49:23;24.00;24.00;16.00
49343;PMS5003;35210;41.606;-87.602;2023-09-30T12:51:53;26.60;20.40;13.60
49343;PMS5003;35210;41.606;-87.602;2023-09-30T12:54:21;26.00;21.00;13.80
49343;PMS5003;35210;41.606;-87.602;2023-09-30T12:56:50;23.20;21.80;14.40
49343;PMS5003;35210;41.606;-87.602;2023-09-30T12:59:18;22.20;19.40;12.80
49343;PMS5003;35210;41.606;-87.602;2023-09-30T13:01:49;25.60;23.00;14.60
49343;PMS5003;35210;41.606;-87.602;2023-09-30T13:04:19;22.20;20.40;13.80
49343;PMS5003;35210;41.606;-87.602;2023-09-30T13:06:49;24.00;20.40;14.00
49343;PMS5003;35210;41.606;-87.602;2023-09-30T13:09:17;22.80;18.60;12.40
49343;PMS5003;35210;41.606;-87.602;2023-09-30T13:11:46;23.40;20.20;14.40
49343;PMS5003;35210;41.606;-87.602;2023-09-30T13:14:14;23.00;22.80;14.00
49343;PMS5003;35210;41.606;-87.602;2023-09-30T13:16:43;27.20;21.40;14.20
49343;PMS5003;35210;41.606;-87.602;2023-09-30T13:19:12;24.80;21.60;13.80
49343;PMS5003;35210;41.606;-87.602;2023-09-30T13:21:43;26.80;23.20;15.20
49343;PMS5003;35210;41.606;-87.602;2023-09-30T13:24:11;31.60;22.60;13.00
49343;PMS5003;35210;41.606;-87.602;2023-09-30T13:26:39;24.60;21.20;15.00
49343;PMS5003;35210;41.606;-87.602;2023-09-30T13:29:07;26.00;23.40;14.80
49343;PMS5003;35210;41.606;-87.602;2023-09-30T13:31:37;25.20;20.80;15.00
49343;PMS5003;35210;41.606;-87.602;2023-09-30T13:34:05;23.80;22.00;14.40
49343;PMS5003;35210;41.606;-87.602;2023-09-30T13:36:33;21.00;19.80;11.60
49343;PMS5003;35210;41.606;-87.602;2023-09-30T13:39:04;21.80;21.00;13.40
49343;PMS5003;35210;41.606;-87.602;2023-09-30T13:41:33;20.80;17.40;11.20
49343;PMS5003;35210;41.606;-87.602;2023-09-30T13:44:03;22.80;19.40;12.80
49343;PMS5003;35210;41.606;-87.602;2023-09-30T13:46:31;23.20;19.00;12.80
49343;PMS5003;35210;41.606;-87.602;2023-09-30T13:48:59;29.00;23.80;14.40
49343;PMS5003;35210;41.606;-87.602;2023-09-30T13:51:28;21.60;18.00;11.20
49343;PMS5003;35210;41.606;-87.602;2023-09-30T13:53:56;17.80;16.00;9.60
49343;PMS5003;35210;41.606;-87.602;2023-09-30T13:56:26;19.40;17.60;11.40
49343;PMS5003;35210;41.606;-87.602;2023-09-30T13:58:55;23.40;19.40;12.60